Time;durP1;ratioP1;P1;durP2;ratioP2;P2;SDS_P1;SDS_P2;PMS_P1;PMS_P2;Temp;Humidity;BMP_temperature;BMP_pressure;BME280_temperature;BME280_humidity;BME280_pressure;Samples;Min_cycle;Max_cycle;Signal;HPM_P1;HPM_P2
2022/04/01 00:00:01;;;;;;;42.47;22.00;;;;;;;3.43;98.91;95455.91;5033785;28;20041;-63
2022/04/01 00:02:37;;;;;;;42.28;21.85;;;;;;;3.36;98.83;95460.69;5028495;28;20049;-63
2022/04/01 00:05:06;;;;;;;48.80;22.60;;;;;;;3.35;100.00;95453.69;5029889;28;20052;-64
2022/04/01 00:07:34;;;;;;;52.35;24.63;;;;;;;3.32;100.00;95456.88;5008201;28;20053;-63
2022/04/01 00:10:01;;;;;;;49.85;23.40;;;;;;;3.39;99.94;95457.47;5006407;28;20441;-64
2022/04/01 00:12:28;;;;;;;58.72;26.88;;;;;;;3.35;100.00;95451.00;5021782;28;20120;-64
2022/04/01 00:14:54;;;;;;;47.78;24.35;;;;;;;3.34;98.81;95454.75;5027312;28;20044;-64
2022/04/01 00:17:21;;;;;;;47.28;23.08;;;;;;;3.32;99.17;95455.00;5025424;28;20041;-64
2022/04/01 00:19:48;;;;;;;46.88;24.88;;;;;;;3.21;100.00;95448.75;5026184;28;20045;-65
2022/04/01 00:22:14;;;;;;;44.33;22.67;;;;;;;3.13;100.00;95457.22;5035431;28;20747;-64
2022/04/01 00:24:41;;;;;;;40.05;20.90;;;;;;;3.30;99.70;95450.97;5028182;28;20051;-63
2022/04/01 00:27:08;;;;;;;41.60;21.67;;;;;;;3.10;99.98;95449.72;5043645;28;20068;-63
2022/04/01 00:29:35;;;;;;;43.25;23.23;;;;;;;3.05;100.00;95458.50;5035778;28;20041;-63
2022/04/01 00:32:02;;;;;;;44.40;23.10;;;;;;;2.97;100.00;95453.59;5025878;28;20045;-65
2022/04/01 00:34:30;;;;;;;45.58;21.70;;;;;;;3.11;100.00;95445.97;5025004;28;20045;-63
2022/04/01 00:36:59;;;;;;;40.55;22.05;;;;;;;3.06;100.00;95446.72;5036325;28;20052;-63
2022/04/01 00:39:30;;;;;;;45.78;23.45;;;;;;;3.04;100.00;95448.84;5037784;28;20045;-63
2022/04/01 00:42:00;;;;;;;49.60;24.13;;;;;;;3.07;100.00;95453.72;5025685;28;20072;-64
2022/04/01 00:44:32;;;;;;;56.10;25.38;;;;;;;2.90;99.97;95453.78;5024859;28;20544;-62
2022/04/01 00:47:04;;;;;;;53.22;24.92;;;;;;;2.83;99.18;95458.50;5024453;28;20034;-64
2022/04/01 00:49:31;;;;;;;47.25;24.17;;;;;;;2.77;99.59;95451.50;5027549;28;20095;-63
2022/04/01 00:52:04;;;;;;;43.33;22.85;;;;;;;2.80;99.48;95449.13;5026433;28;20120;-64
2022/04/01 00:54:30;;;;;;;51.80;23.92;;;;;;;2.94;99.54;95451.41;5022044;28;20041;-64
2022/04/01 00:56:59;;;;;;;52.13;24.10;;;;;;;2.88;99.74;95441.72;5022425;28;20136;-64
2022/04/01 00:59:26;;;;;;;48.03;24.05;;;;;;;2.91;99.47;95443.91;5023230;28;20502;-63
2022/04/01 01:01:52;;;;;;;50.55;24.30;;;;;;;2.89;100.00;95449.50;5022708;28;20033;-63
2022/04/01 01:04:20;;;;;;;50.83;24.55;;;;;;;2.81;100.00;95442.75;5024960;28;20092;-64
2022/04/01 01:06:49;;;;;;;53.10;27.52;;;;;;;2.80;99.77;95451.78;5024255;28;20060;-64
2022/04/01 01:09:17;;;;;;;53.90;25.25;;;;;;;2.77;100.00;95454.16;5023707;28;20041;-64
2022/04/01 01:11:45;;;;;;;55.80;24.95;;;;;;;2.80;100.00;95451.00;5025000;28;20049;-64
2022/04/01 01:14:13;;;;;;;53.80;25.75;;;;;;;2.79;99.98;95447.50;5021746;28;20045;-64
2022/04/01 01:16:44;;;;;;;53.85;24.30;;;;;;;2.75;100.00;95449.06;5027378;28;20064;-64
2022/04/01 01:19:16;;;;;;;52.92;25.95;;;;;;;2.80;100.00;95451.00;5024821;28;20436;-63
2022/04/01 01:21:45;;;;;;;52.13;26.67;;;;;;;2.62;99.49;95460.13;5029438;28;20048;-63
2022/04/01 01:24:15;;;;;;;56.60;28.42;;;;;;;2.58;100.00;95460.63;5027333;28;20065;-63
2022/04/01 01:26:47;;;;;;;64.45;29.17;;;;;;;2.59;100.00;95458.78;5022992;28;20045;-64
2022/04/01 01:29:19;;;;;;;66.55;30.58;;;;;;;2.62;100.00;95460.13;5024216;28;20629;-63
2022/04/01 01:31:48;;;;;;;67.78;30.55;;;;;;;2.65;100.00;95443.63;5024270;28;20056;-63
2022/04/01 01:34:16;;;;;;;71.63;32.58;;;;;;;2.53;100.00;95451.72;5030858;28;20417;-63
2022/04/01 01:36:42;;;;;;;61.85;27.15;;;;;;;2.63;100.00;95451.88;5023029;28;20140;-63
2022/04/01 01:39:09;;;;;;;60.42;27.55;;;;;;;2.64;100.00;95452.66;5021688;28;20049;-63
2022/04/01 01:41:35;;;;;;;63.95;27.33;;;;;;;2.61;100.00;95456.66;5036195;28;20424;-64
2022/04/01 01:44:04;;;;;;;72.63;28.90;;;;;;;2.39;100.00;95451.31;5025006;28;20058;-63
2022/04/01 01:46:30;;;;;;;68.03;30.58;;;;;;;2.51;100.00;95457.31;5027019;28;20049;-63
2022/04/01 01:48:57;;;;;;;60.97;27.60;;;;;;;2.59;100.00;95458.78;5027517;28;20052;-64
2022/04/01 01:56:55;;;;;;;59.33;27.25;;;;;;;2.53;100.00;95454.41;5025606;28;20045;-64
2022/04/01 01:59:22;;;;;;;57.95;26.15;;;;;;;2.51;100.00;95457.31;5026985;28;20049;-64
2022/04/01 02:01:50;;;;;;;60.97;28.95;;;;;;;2.40;100.00;95456.38;5026633;28;20111;-64
2022/04/01 02:04:17;;;;;;;63.00;25.55;;;;;;;2.42;100.00;95456.94;5044240;28;20136;-64
2022/04/01 02:06:43;;;;;;;76.90;29.50;;;;;;;2.34;100.00;95454.72;5041796;28;20516;-64
2022/04/01 02:09:10;;;;;;;62.90;26.27;;;;;;;2.48;100.00;95449.81;5026641;28;20057;-64
2022/04/01 02:11:37;;;;;;;74.30;28.88;;;;;;;2.54;100.00;95445.34;5043733;28;20045;-64
2022/04/01 02:14:04;;;;;;;69.78;29.00;;;;;;;2.57;100.00;95451.00;5025302;28;20047;-63
2022/04/01 02:16:31;;;;;;;74.85;30.02;;;;;;;2.56;100.00;95449.38;5024784;28;20048;-65
2022/04/01 02:18:58;;;;;;;61.75;27.75;;;;;;;2.61;100.00;95445.97;5027882;28;20469;-63
2022/04/01 02:21:24;;;;;;;57.45;25.40;;;;;;;2.52;99.30;95447.44;5028120;28;20563;-63
2022/04/01 02:23:51;;;;;;;56.00;24.73;;;;;;;2.43;100.00;95449.75;5032793;28;20072;-64
2022/04/01 02:26:22;;;;;;;55.45;26.25;;;;;;;2.38;100.00;95447.81;5007126;28;20717;-63
2022/04/01 02:28:48;;;;;;;53.33;24.27;;;;;;;2.38;100.00;95450.50;5020378;28;20128;-63
2022/04/01 02:31:18;;;;;;;54.80;26.33;;;;;;;2.46;100.00;95450.06;5043661;28;20044;-63
2022/04/01 02:34:03;;;;;;;64.03;26.50;;;;;;;2.39;100.00;95451.31;5027497;28;20158;-63
2022/04/01 02:36:30;;;;;;;55.85;24.40;;;;;;;2.31;100.00;95448.00;5024282;28;20057;-64
2022/04/01 02:38:58;;;;;;;56.55;26.65;;;;;;;2.33;100.00;95459.22;5025766;28;20065;-62
2022/04/01 02:41:25;;;;;;;49.80;23.23;;;;;;;2.36;99.71;95459.81;5025639;28;20104;-63
2022/04/01 02:44:08;;;;;;;41.72;20.98;;;;;;;2.32;98.09;95452.28;5024303;28;20140;-64
2022/04/01 02:46:42;;;;;;;46.95;22.52;;;;;;;2.16;99.31;95453.94;5013639;28;20103;-63
2022/04/01 02:49:15;;;;;;;53.70;23.17;;;;;;;2.37;100.00;95458.75;5026297;28;20095;-63
2022/04/01 02:51:56;;;;;;;48.33;22.05;;;;;;;2.37;100.00;95458.75;5022093;28;20037;-64
2022/04/01 02:54:24;;;;;;;50.10;25.00;;;;;;;2.23;99.75;95451.09;5032921;28;20037;-63
2022/04/01 02:56:53;;;;;;;44.03;22.77;;;;;;;2.14;99.72;95458.69;5033816;28;20052;-63
2022/04/01 02:59:20;;;;;;;45.65;21.55;;;;;;;2.26;100.00;95453.28;5025980;28;20540;-63
2022/04/01 03:01:46;;;;;;;55.08;23.60;;;;;;;2.11;99.72;95459.22;5025816;28;20296;-64
2022/04/01 03:04:15;;;;;;;41.10;19.08;;;;;;;2.14;100.00;95457.91;5025537;28;20046;-62
2022/04/01 03:06:51;;;;;;;41.30;19.65;;;;;;;2.14;99.61;95465.91;5024361;28;20068;-63
2022/04/01 03:09:19;;;;;;;37.90;18.15;;;;;;;1.90;99.05;95458.09;5027043;28;20745;-63
2022/04/01 03:11:56;;;;;;;44.28;20.33;;;;;;;1.84;99.28;95459.06;5025709;28;20033;-63
2022/04/01 03:14:41;;;;;;;38.33;19.20;;;;;;;1.89;99.20;95462.63;5026289;28;20052;-64
2022/04/01 03:17:26;;;;;;;45.92;20.23;;;;;;;1.89;99.40;95459.97;5025011;28;20063;-61
2022/04/01 03:19:52;;;;;;;41.83;19.20;;;;;;;1.89;99.67;95459.16;5032238;28;20052;-64
2022/04/01 03:22:20;;;;;;;37.88;18.20;;;;;;;1.87;99.26;95466.56;5034454;28;20046;-63
2022/04/01 03:24:47;;;;;;;39.72;20.17;;;;;;;1.91;99.71;95457.84;5026541;28;20068;-62
2022/04/01 03:27:14;;;;;;;39.50;19.33;;;;;;;1.81;98.80;95460.38;5027201;28;20049;-64
2022/04/01 03:29:41;;;;;;;35.03;18.23;;;;;;;1.60;98.73;95468.03;5025144;28;20073;-64
2022/04/01 03:32:10;;;;;;;35.65;18.38;;;;;;;1.69;99.26;95463.09;5042540;28;20620;-63
2022/04/01 03:34:38;;;;;;;38.60;18.67;;;;;;;1.69;99.94;95461.25;5025334;28;20042;-63
2022/04/01 03:37:05;;;;;;;41.25;18.23;;;;;;;1.80;100.00;95469.41;5024575;28;20042;-63
2022/04/01 03:39:35;;;;;;;42.20;17.60;;;;;;;1.73;99.15;95468.78;5024429;28;20764;-64
2022/04/01 03:42:06;;;;;;;33.65;17.77;;;;;;;1.66;99.22;95475.06;5025147;28;20140;-64
2022/04/01 03:44:41;;;;;;;35.05;17.20;;;;;;;1.60;98.81;95470.72;5028197;28;20036;-62
2022/04/01 03:47:56;;;;;;;34.90;16.98;;;;;;;1.60;100.00;95473.38;5042261;28;20485;-62
2022/04/01 03:50:45;;;;;;;42.33;21.17;;;;;;;1.62;99.24;95476.59;5025139;28;20077;-64
2022/04/01 03:53:14;;;;;;;40.15;18.85;;;;;;;1.58;98.90;95472.78;5023091;28;20045;-63
2022/04/01 03:55:46;;;;;;;36.67;18.05;;;;;;;1.64;98.76;95471.84;5025321;28;20049;-63
2022/04/01 03:58:31;;;;;;;36.15;18.55;;;;;;;1.57;98.07;95479.19;5024794;28;20144;-62
2022/04/01 04:01:19;;;;;;;35.42;17.17;;;;;;;1.52;98.92;95482.56;5014539;28;20133;-61
2022/04/01 04:03:50;;;;;;;42.75;18.85;;;;;;;1.53;100.00;95480.72;5024121;28;20077;-64
2022/04/01 04:06:18;;;;;;;32.55;17.05;;;;;;;1.49;99.26;95479.59;5007249;28;20045;-64
2022/04/01 04:08:46;;;;;;;35.03;17.98;;;;;;;1.51;99.44;95483.63;5023728;28;20052;-63
2022/04/01 04:11:16;;;;;;;38.42;19.38;;;;;;;1.50;99.29;95487.34;5036625;28;20572;-63
2022/04/01 04:13:48;;;;;;;37.15;17.75;;;;;;;1.50;98.22;95483.88;5024658;28;20132;-63
2022/04/01 04:16:23;;;;;;;38.70;20.27;;;;;;;1.38;98.56;95484.75;5023073;28;20065;-64
2022/04/01 04:18:59;;;;;;;39.35;18.95;;;;;;;1.42;99.71;95488.56;5024031;28;20051;-64
2022/04/01 04:21:53;;;;;;;40.30;18.55;;;;;;;1.47;99.83;95487.03;5027061;28;20083;-64
2022/04/01 04:24:30;;;;;;;38.58;19.35;;;;;;;1.47;98.89;95482.50;5037801;28;20138;-64
2022/04/01 04:27:26;;;;;;;39.15;18.02;;;;;;;1.50;98.84;95492.69;5032018;28;20084;-64
2022/04/01 04:30:08;;;;;;;35.10;18.98;;;;;;;1.40;98.96;95493.31;5004365;28;20050;-63
2022/04/01 04:33:15;;;;;;;39.85;19.77;;;;;;;1.33;98.18;95491.84;5021166;28;20054;-64
2022/04/01 04:35:43;;;;;;;41.20;19.48;;;;;;;1.43;99.43;95494.69;5038320;28;20045;-63
2022/04/01 04:38:12;;;;;;;37.95;18.20;;;;;;;1.42;98.11;95498.41;5034081;28;20044;-64
2022/04/01 04:40:42;;;;;;;41.05;18.80;;;;;;;1.41;98.58;95502.91;5024674;28;20049;-63
2022/04/01 04:43:12;;;;;;;33.35;16.55;;;;;;;1.35;98.22;95500.41;5023352;28;20037;-64
2022/04/01 04:45:40;;;;;;;37.30;18.42;;;;;;;1.34;98.83;95499.63;5020233;28;20137;-64
2022/04/01 04:48:09;;;;;;;35.83;18.50;;;;;;;1.36;99.51;95504.72;5021045;28;20045;-64
2022/04/01 04:50:37;;;;;;;39.47;20.10;;;;;;;1.32;99.08;95500.91;5023063;28;20045;-64
2022/04/01 04:53:03;;;;;;;37.30;18.40;;;;;;;1.16;98.05;95501.44;5029890;28;20047;-64
2022/04/01 04:55:32;;;;;;;37.55;17.58;;;;;;;1.19;99.32;95508.16;5041804;28;20072;-64
2022/04/01 04:58:08;;;;;;;36.70;18.42;;;;;;;1.19;99.78;95502.00;5032973;28;20111;-64
2022/04/01 05:00:47;;;;;;;39.35;19.30;;;;;;;1.25;99.90;95511.72;5027616;28;20052;-64
2022/04/01 05:03:32;;;;;;;44.13;21.42;;;;;;;1.26;100.00;95516.78;5023292;28;20049;-64
2022/04/01 05:06:03;;;;;;;46.20;20.67;;;;;;;1.32;100.00;95517.69;5022932;28;20134;-64
2022/04/01 05:09:10;;;;;;;45.03;21.05;;;;;;;1.27;100.00;95513.09;5021472;28;20509;-64
2022/04/01 05:12:02;;;;;;;41.97;21.92;;;;;;;1.07;99.36;95523.38;5030762;28;20045;-64
2022/04/01 05:15:01;;;;;;;35.47;19.20;;;;;;;1.05;99.95;95526.25;5026615;28;20128;-64
2022/04/01 05:17:36;;;;;;;41.83;22.17;;;;;;;1.13;100.00;95522.41;5029058;28;20508;-65
2022/04/01 05:20:15;;;;;;;43.20;21.42;;;;;;;1.10;100.00;95521.03;5058438;28;20604;-66
2022/04/01 05:23:06;;;;;;;48.90;21.65;;;;;;;1.12;100.00;95534.13;5039509;28;20053;-63
2022/04/01 05:25:40;;;;;;;49.75;25.20;;;;;;;1.10;99.49;95533.56;5022257;28;20052;-65
2022/04/01 05:28:26;;;;;;;45.67;22.05;;;;;;;1.10;100.00;95542.34;5032707;28;20072;-67
2022/04/01 05:31:04;;;;;;;41.42;20.25;;;;;;;1.17;99.65;95536.88;5030908;28;20048;-65
2022/04/01 05:33:46;;;;;;;45.28;23.75;;;;;;;1.00;98.29;95534.16;5031319;28;20056;-65
2022/04/01 05:36:16;;;;;;;40.92;21.70;;;;;;;1.11;98.98;95541.31;5043978;28;20051;-65
2022/04/01 05:38:43;;;;;;;44.83;23.58;;;;;;;1.00;98.30;95542.16;5041688;28;20770;-65
2022/04/01 05:41:11;;;;;;;46.92;23.83;;;;;;;0.91;98.83;95544.38;5010766;28;20595;-64
2022/04/01 05:43:46;;;;;;;42.65;21.90;;;;;;;1.03;99.77;95547.00;5026656;28;20132;-65
2022/04/01 05:46:25;;;;;;;49.33;24.42;;;;;;;0.90;99.27;95556.91;5029314;28;20541;-66
2022/04/01 05:48:57;;;;;;;43.80;24.25;;;;;;;0.87;99.78;95551.22;5024436;28;20513;-66
2022/04/01 05:51:27;;;;;;;46.05;23.30;;;;;;;0.98;100.00;95565.56;5023905;28;20049;-65
2022/04/01 05:53:54;;;;;;;52.20;24.90;;;;;;;1.02;100.00;95567.53;5042900;28;20140;-65
2022/04/01 05:56:22;;;;;;;55.38;27.55;;;;;;;1.01;98.95;95570.44;5024295;28;20524;-66
2022/04/01 05:58:49;;;;;;;47.20;24.50;;;;;;;1.02;99.80;95572.03;5021960;28;20049;-64
2022/04/01 06:01:23;;;;;;;47.40;24.40;;;;;;;1.00;99.27;95572.28;5036002;28;20132;-64
2022/04/01 06:03:54;;;;;;;43.85;23.00;;;;;;;0.96;99.13;95575.66;5032357;28;20140;-65
2022/04/01 06:06:31;;;;;;;46.85;23.92;;;;;;;0.89;99.59;95578.47;5024424;28;20083;-65
2022/04/01 06:09:31;;;;;;;44.97;22.85;;;;;;;1.03;99.54;95579.81;5033500;28;20090;-65
2022/04/01 06:12:23;;;;;;;48.00;23.65;;;;;;;1.03;99.43;95585.13;5031647;28;20049;-66
2022/04/01 06:15:08;;;;;;;46.83;22.63;;;;;;;0.90;98.85;95575.56;5023063;28;20061;-66
2022/04/01 06:18:09;;;;;;;46.25;22.17;;;;;;;0.89;99.38;95576.59;5027473;28;20128;-64
2022/04/01 06:20:40;;;;;;;49.58;23.20;;;;;;;0.97;98.84;95583.44;5035593;28;20041;-65
2022/04/01 06:23:18;;;;;;;43.08;21.15;;;;;;;0.84;98.91;95581.81;5043246;28;20044;-64
2022/04/01 06:25:55;;;;;;;40.30;21.30;;;;;;;0.95;99.02;95587.38;5046075;28;20052;-65
2022/04/01 06:28:30;;;;;;;40.47;21.08;;;;;;;0.86;99.20;95585.06;5046956;28;20495;-66
2022/04/01 06:31:22;;;;;;;41.42;20.52;;;;;;;1.04;99.88;95586.75;5046969;28;20047;-64
2022/04/01 06:34:20;;;;;;;38.85;21.10;;;;;;;0.97;98.96;95590.59;5010319;28;20495;-64
2022/04/01 06:36:53;;;;;;;37.63;20.13;;;;;;;1.01;98.87;95597.09;5027285;28;20406;-66
2022/04/01 06:39:45;;;;;;;40.58;21.55;;;;;;;0.98;99.66;95598.38;5025724;28;20115;-65
2022/04/01 06:42:22;;;;;;;35.72;18.88;;;;;;;1.14;99.86;95604.81;5026459;28;20124;-64
2022/04/01 06:45:09;;;;;;;36.85;21.00;;;;;;;1.07;98.50;95604.13;5028064;28;20192;-64
2022/04/01 06:48:06;;;;;;;40.28;19.67;;;;;;;1.15;98.97;95609.09;5024546;28;20057;-64
2022/04/01 06:50:54;;;;;;;33.28;18.90;;;;;;;1.10;98.27;95603.66;5025242;28;20462;-64
2022/04/01 06:53:56;;;;;;;39.55;20.27;;;;;;;1.13;98.17;95605.88;5028229;28;20128;-64
2022/04/01 06:56:41;;;;;;;40.88;19.92;;;;;;;1.22;98.18;95608.16;5023840;28;20068;-65
2022/04/01 06:59:08;;;;;;;39.08;19.23;;;;;;;1.19;99.54;95612.13;5038581;28;20040;-64
2022/04/01 07:01:34;;;;;;;37.50;21.08;;;;;;;1.01;97.62;95608.56;5026998;28;20057;-63
2022/04/01 07:04:01;;;;;;;40.28;21.30;;;;;;;1.12;98.59;95604.25;5027256;28;20432;-66
2022/04/01 07:06:28;;;;;;;42.78;21.40;;;;;;;1.15;98.29;95614.44;5026471;28;20107;-65
2022/04/01 07:08:54;;;;;;;40.40;18.95;;;;;;;1.30;97.37;95613.13;5026520;28;20138;-64
2022/04/01 07:11:21;;;;;;;38.15;19.48;;;;;;;1.52;96.98;95615.16;5026120;28;20837;-65
2022/04/01 07:13:48;;;;;;;33.08;18.90;;;;;;;1.66;96.21;95603.13;5027256;28;20033;-65
2022/04/01 07:16:14;;;;;;;37.90;19.75;;;;;;;1.62;96.57;95606.53;5035038;28;20052;-65
2022/04/01 07:18:41;;;;;;;34.55;19.05;;;;;;;1.56;95.65;95616.31;5034119;28;20386;-65
2022/04/01 07:21:08;;;;;;;41.40;20.63;;;;;;;1.35;96.96;95615.06;5023758;28;20049;-67
2022/04/01 07:23:36;;;;;;;44.05;21.35;;;;;;;1.39;97.40;95614.38;5027269;28;20072;-65
2022/04/01 07:26:04;;;;;;;38.83;20.95;;;;;;;1.08;96.72;95611.09;5022865;28;20049;-66
2022/04/01 07:28:32;;;;;;;45.45;21.77;;;;;;;1.11;98.79;95612.47;5026294;28;20048;-65
2022/04/01 07:34:22;;;;;;;43.75;21.15;;;;;;;1.14;98.73;95618.16;5015010;28;20046;-66
2022/04/01 07:36:49;;;;;;;44.35;21.60;;;;;;;1.17;97.64;95617.69;5023803;28;20049;-64
2022/04/01 07:39:16;;;;;;;40.10;20.58;;;;;;;1.07;96.73;95616.66;5035020;28;20055;-68
2022/04/01 07:41:43;;;;;;;36.30;18.67;;;;;;;1.11;97.32;95620.47;5025062;28;20527;-64
2022/04/01 07:44:09;;;;;;;38.13;19.00;;;;;;;1.24;97.61;95622.06;5023295;28;20532;-65
2022/04/01 07:46:36;;;;;;;38.13;20.35;;;;;;;1.24;97.81;95624.72;5028101;28;20106;-66
2022/04/01 07:49:02;;;;;;;42.58;21.23;;;;;;;1.16;98.18;95620.59;5035519;28;20041;-66
2022/04/01 07:51:29;;;;;;;38.92;19.90;;;;;;;1.31;98.09;95620.09;4986695;28;20060;-64
2022/04/01 07:53:56;;;;;;;39.80;22.10;;;;;;;1.19;97.40;95628.13;5042951;28;20103;-65
2022/04/01 07:56:30;;;;;;;37.20;19.05;;;;;;;1.14;98.70;95628.81;5024488;28;20107;-65
2022/04/01 07:58:58;;;;;;;38.03;19.90;;;;;;;1.31;98.35;95633.41;5026071;28;20111;-67
2022/04/01 08:01:29;;;;;;;40.45;21.48;;;;;;;1.22;98.28;95624.16;5010671;28;20045;-67
2022/04/01 08:03:56;;;;;;;38.83;19.38;;;;;;;1.26;98.63;95634.09;5023391;28;20664;-64
2022/04/01 08:06:22;;;;;;;40.75;20.83;;;;;;;1.23;98.91;95634.59;5042282;28;20053;-66
2022/04/01 08:08:49;;;;;;;34.30;17.23;;;;;;;1.37;98.09;95642.34;5027884;28;20553;-67
2022/04/01 08:11:15;;;;;;;33.72;17.88;;;;;;;1.45;96.71;95643.81;5022471;28;20401;-64
2022/04/01 08:13:42;;;;;;;34.00;18.85;;;;;;;1.44;97.58;95648.34;5023534;28;20045;-67
2022/04/01 08:16:10;;;;;;;31.92;17.67;;;;;;;1.36;96.25;95652.19;5038831;28;20120;-65
2022/04/01 08:18:37;;;;;;;32.33;17.90;;;;;;;1.28;96.83;95653.38;5040293;28;20052;-66
2022/04/01 08:21:03;;;;;;;30.88;16.40;;;;;;;1.27;95.85;95650.94;5030576;28;20049;-66
2022/04/01 08:23:35;;;;;;;27.35;15.60;;;;;;;1.30;97.29;95658.47;5036656;28;20140;-64
2022/04/01 08:26:02;;;;;;;35.13;16.92;;;;;;;1.32;97.31;95664.34;5042447;28;20085;-67
2022/04/01 08:28:28;;;;;;;30.23;17.42;;;;;;;1.40;97.31;95658.66;5021612;28;20045;-65
2022/04/01 08:30:55;;;;;;;32.13;15.85;;;;;;;1.54;95.73;95667.22;5036157;28;20048;-64
2022/04/01 08:33:24;;;;;;;31.55;16.83;;;;;;;1.28;96.11;95663.22;5024216;28;20045;-65
2022/04/01 08:35:51;;;;;;;27.15;15.20;;;;;;;1.51;94.99;95670.34;5022430;28;20496;-65
2022/04/01 08:38:18;;;;;;;26.40;15.65;;;;;;;1.38;95.35;95673.28;5031761;28;20044;-66
2022/04/01 08:40:45;;;;;;;26.85;15.63;;;;;;;1.58;96.00;95664.88;5029351;28;20420;-64
2022/04/01 08:43:11;;;;;;;27.98;15.70;;;;;;;1.58;96.60;95678.22;5022968;28;20045;-64
2022/04/01 08:45:39;;;;;;;29.30;15.20;;;;;;;1.71;94.59;95676.31;5035495;28;20051;-66
2022/04/01 08:48:11;;;;;;;23.40;13.75;;;;;;;1.65;93.98;95681.56;5022735;28;20120;-64
2022/04/01 08:50:41;;;;;;;25.25;14.82;;;;;;;1.40;95.19;95687.22;5027802;28;20041;-64
2022/04/01 08:53:07;;;;;;;23.73;11.32;;;;;;;1.38;93.43;95690.09;5033907;28;20068;-64
2022/04/01 08:55:34;;;;;;;24.85;14.65;;;;;;;1.51;96.79;95685.56;5022854;28;20045;-63
2022/04/01 08:58:00;;;;;;;25.67;13.50;;;;;;;1.45;94.96;95686.50;5012411;28;20486;-64
2022/04/01 09:00:28;;;;;;;23.20;14.27;;;;;;;1.65;95.46;95694.09;5013329;28;20064;-64
2022/04/01 09:03:15;;;;;;;23.52;13.50;;;;;;;1.68;94.71;95691.78;5022782;28;20493;-66
2022/04/01 09:05:52;;;;;;;23.83;14.10;;;;;;;1.63;93.61;95696.19;5034441;28;20127;-64
2022/04/01 09:08:26;;;;;;;24.10;12.77;;;;;;;1.64;94.11;95698.63;5022278;28;20050;-63
2022/04/01 09:11:01;;;;;;;18.20;11.93;;;;;;;1.40;93.28;95704.00;5021481;28;20056;-63
2022/04/01 09:13:31;;;;;;;21.92;13.00;;;;;;;1.49;94.74;95700.97;5022921;28;20099;-64
2022/04/01 09:15:59;;;;;;;24.30;13.85;;;;;;;1.62;96.50;95708.72;5023858;28;20562;-64
2022/04/01 09:18:39;;;;;;;22.75;13.05;;;;;;;1.48;94.10;95712.69;5022693;28;20073;-64
2022/04/01 09:21:11;;;;;;;24.58;13.70;;;;;;;1.54;94.47;95711.75;5031212;28;20496;-66
2022/04/01 09:23:38;;;;;;;24.35;14.45;;;;;;;1.28;95.17;95711.19;5022631;28;20033;-66
2022/04/01 09:26:06;;;;;;;26.17;14.13;;;;;;;1.39;97.77;95714.91;5022370;28;20046;-67
2022/04/01 09:28:41;;;;;;;26.75;14.88;;;;;;;1.47;96.21;95714.53;5022758;28;20057;-64
2022/04/01 09:31:11;;;;;;;24.33;14.02;;;;;;;1.33;95.82;95714.00;5032281;28;20521;-64
2022/04/01 09:33:59;;;;;;;24.92;15.35;;;;;;;1.24;96.66;95720.72;5033160;28;20095;-67
2022/04/01 09:36:36;;;;;;;24.77;14.55;;;;;;;1.18;97.53;95727.78;5036602;28;20052;-65
2022/04/01 09:39:04;;;;;;;25.52;14.15;;;;;;;1.37;96.60;95725.00;5018461;28;20473;-64
2022/04/01 09:41:39;;;;;;;25.08;13.70;;;;;;;1.39;96.65;95722.91;5041417;28;20052;-65
2022/04/01 09:44:28;;;;;;;25.83;14.52;;;;;;;1.28;98.04;95730.69;5042903;28;20455;-65
2022/04/01 09:47:01;;;;;;;25.75;14.00;;;;;;;1.38;98.25;95730.13;5022502;28;20041;-65
2022/04/01 09:49:44;;;;;;;24.80;13.55;;;;;;;1.51;96.73;95733.56;5020805;28;20238;-63
2022/04/01 09:52:15;;;;;;;24.05;13.50;;;;;;;1.43;96.94;95729.38;5011377;28;20128;-64
2022/04/01 09:54:49;;;;;;;21.42;12.40;;;;;;;1.39;95.62;95742.41;5022282;28;20041;-66
2022/04/01 09:57:17;;;;;;;19.17;10.73;;;;;;;1.36;95.82;95737.53;5026859;28;20052;-64
2022/04/01 09:59:45;;;;;;;20.67;11.55;;;;;;;1.24;95.84;95742.88;5025606;28;20045;-64
2022/04/01 10:02:12;;;;;;;20.38;11.93;;;;;;;1.27;96.36;95745.06;5050006;28;20543;-64
2022/04/01 10:04:39;;;;;;;20.05;11.20;;;;;;;1.44;96.72;95744.38;5045800;28;20037;-65
2022/04/01 10:07:06;;;;;;;20.08;12.38;;;;;;;1.52;97.24;95745.84;5040489;28;20045;-63
2022/04/01 10:09:34;;;;;;;18.38;11.38;;;;;;;1.27;95.17;95746.91;5042300;28;20053;-65
2022/04/01 10:12:25;;;;;;;17.08;10.88;;;;;;;1.55;95.60;95756.06;5045399;28;20106;-64
2022/04/01 10:14:59;;;;;;;18.05;11.82;;;;;;;1.41;93.04;95750.16;5027209;28;20033;-65
2022/04/01 10:17:45;;;;;;;16.85;9.80;;;;;;;1.49;95.11;95751.66;5035780;28;20056;-64
2022/04/01 10:20:13;;;;;;;19.15;10.90;;;;;;;1.53;94.88;95750.16;5035989;28;20071;-63
2022/04/01 10:22:41;;;;;;;17.23;10.60;;;;;;;1.56;96.16;95744.34;5034591;28;20424;-63
2022/04/01 10:25:16;;;;;;;18.63;10.55;;;;;;;1.62;93.99;95755.94;5037723;28;20643;-63
2022/04/01 10:27:49;;;;;;;16.13;10.80;;;;;;;1.33;94.12;95756.69;5047127;28;20049;-64
2022/04/01 10:30:18;;;;;;;18.38;10.98;;;;;;;1.56;95.52;95758.47;5047198;28;20511;-64
2022/04/01 10:32:46;;;;;;;19.33;11.10;;;;;;;1.87;95.22;95757.50;5033771;28;20043;-64
2022/04/01 10:35:28;;;;;;;17.33;10.63;;;;;;;1.49;93.96;95763.16;5036959;28;20060;-64
2022/04/01 10:38:15;;;;;;;17.08;11.15;;;;;;;1.45;94.91;95762.00;5025577;28;20061;-66
2022/04/01 10:40:45;;;;;;;16.85;11.43;;;;;;;1.44;94.95;95765.72;5022791;28;20056;-66
2022/04/01 10:43:15;;;;;;;20.63;11.77;;;;;;;1.68;95.14;95757.66;5031001;28;20049;-65
2022/04/01 10:46:05;;;;;;;17.58;10.95;;;;;;;1.54;93.70;95767.75;5024344;28;20056;-63
2022/04/01 10:51:38;;;;;;;15.70;9.60;;;;;;;1.80;95.06;95762.97;5010996;28;20053;-64
2022/04/01 10:54:12;;;;;;;14.30;10.02;;;;;;;1.72;92.32;95768.66;5029146;28;20098;-64
2022/04/01 10:56:40;;;;;;;16.33;10.18;;;;;;;1.68;94.47;95771.00;5044541;28;20048;-64
2022/04/01 10:59:16;;;;;;;13.27;8.45;;;;;;;1.56;94.33;95765.69;5034555;28;20073;-64
2022/04/01 11:01:52;;;;;;;15.25;9.23;;;;;;;1.74;95.46;95767.41;5025098;28;20037;-64
2022/04/01 11:04:20;;;;;;;15.70;9.68;;;;;;;1.74;96.77;95770.06;5024734;28;20448;-64
2022/04/01 11:07:00;;;;;;;15.27;8.20;;;;;;;1.79;94.40;95780.03;5023860;28;20052;-65
2022/04/01 11:09:38;;;;;;;11.80;7.45;;;;;;;1.92;93.39;95776.31;5023652;28;20048;-65
2022/04/01 11:12:21;;;;;;;14.02;7.85;;;;;;;1.81;95.21;95776.06;5025038;28;20046;-64
2022/04/01 11:14:54;;;;;;;12.80;7.10;;;;;;;1.86;94.32;95772.72;5033126;28;20053;-65
2022/04/01 11:17:22;;;;;;;10.30;6.85;;;;;;;1.68;93.56;95777.16;5035309;28;20505;-64
2022/04/01 11:20:02;;;;;;;11.85;8.20;;;;;;;1.47;95.77;95780.44;5024301;28;20045;-64
2022/04/01 11:22:47;;;;;;;12.95;8.38;;;;;;;1.54;94.75;95783.78;5023582;28;20103;-64
2022/04/01 11:25:38;;;;;;;12.07;7.05;;;;;;;2.11;92.41;95778.78;5024295;28;20058;-65
2022/04/01 11:28:09;;;;;;;11.57;7.07;;;;;;;1.98;91.99;95777.22;5027463;28;20531;-65
2022/04/01 11:31:06;;;;;;;10.57;8.02;;;;;;;1.66;91.59;95781.09;5042646;28;20798;-65
2022/04/01 11:33:33;;;;;;;12.05;7.78;;;;;;;1.52;94.69;95786.66;5015947;28;20057;-64
2022/04/01 11:35:59;;;;;;;16.70;11.02;;;;;;;1.56;94.75;95784.38;5024106;28;20061;-64
2022/04/01 11:38:29;;;;;;;14.60;10.82;;;;;;;1.39;94.10;95790.41;5024804;28;20049;-64
2022/04/01 11:41:00;;;;;;;14.88;10.50;;;;;;;1.47;95.36;95791.09;5039418;28;20497;-64
2022/04/01 11:43:28;;;;;;;13.20;8.50;;;;;;;1.49;94.30;95792.50;5026298;28;20096;-64
2022/04/01 11:45:57;;;;;;;13.85;10.05;;;;;;;1.47;95.10;95793.78;5023320;28;20100;-65
2022/04/01 11:48:36;;;;;;;11.75;7.95;;;;;;;1.48;93.48;95798.06;5024945;28;20523;-64
2022/04/01 11:51:23;;;;;;;12.98;8.57;;;;;;;1.57;95.42;95791.31;5023510;28;20037;-64
2022/04/01 11:53:52;;;;;;;12.20;8.02;;;;;;;1.53;94.29;95792.81;5023018;28;20683;-64
2022/04/01 11:56:22;;;;;;;17.55;9.82;;;;;;;1.52;94.80;95794.66;5024043;28;20087;-67
2022/04/01 11:58:58;;;;;;;14.60;9.50;;;;;;;1.58;94.73;95795.59;5023431;28;20068;-66
2022/04/01 12:01:28;;;;;;;12.57;7.63;;;;;;;1.68;94.61;95803.84;5022390;28;20047;-65